Time;durP1;ratioP1;P1;durP2;ratioP2;P2;SDS_P1;SDS_P2;PMS_P1;PMS_P2;Temp;Humidity;BMP_temperature;BMP_pressure;BME280_temperature;BME280_humidity;BME280_pressure;Samples;Min_cycle;Max_cycle;Signal;HPM_P1;HPM_P2
2024/01/28 00:01:58;;;;;;;14.45;2.45;;;5.80;99.90;;;;;;6338261;22;19995;-92
2024/01/28 00:04:24;;;;;;;11.30;2.28;;;5.80;99.90;;;;;;6337023;22;20007;-91
2024/01/28 00:06:52;;;;;;;21.50;2.95;;;5.80;99.90;;;;;;6337705;22;19995;-92
2024/01/28 00:09:18;;;;;;;16.30;3.42;;;5.80;99.90;;;;;;6338497;22;19999;-91
2024/01/28 00:11:43;;;;;;;13.45;2.85;;;5.80;99.90;;;;;;6338051;22;20017;-92
2024/01/28 00:14:09;;;;;;;13.95;2.55;;;5.80;99.90;;;;;;6337593;22;20010;-91
2024/01/28 00:16:35;;;;;;;20.35;4.65;;;5.80;99.90;;;;;;6338188;22;20002;-92
2024/01/28 00:19:02;;;;;;;13.70;2.72;;;5.70;99.90;;;;;;6365678;22;19999;-89
2024/01/28 00:21:31;;;;;;;17.25;2.63;;;5.70;99.90;;;;;;6365621;22;19994;-92
2024/01/28 00:23:59;;;;;;;18.23;2.40;;;5.70;99.90;;;;;;6339262;22;20023;-92
2024/01/28 00:26:25;;;;;;;17.20;3.55;;;5.70;99.90;;;;;;6339366;22;20006;-92
2024/01/28 00:28:51;;;;;;;17.30;2.90;;;5.70;99.90;;;;;;6339526;22;19991;-92
2024/01/28 00:31:17;;;;;;;19.92;3.92;;;5.70;99.90;;;;;;6365602;22;19995;-92
2024/01/28 00:33:42;;;;;;;19.52;3.05;;;5.70;99.90;;;;;;6339863;22;19991;-91
2024/01/28 00:36:14;;;;;;;17.17;3.55;;;5.60;99.90;;;;;;6339405;22;20010;-92
2024/01/28 00:38:40;;;;;;;13.85;3.38;;;5.60;99.90;;;;;;6339584;22;19995;-91
2024/01/28 00:41:05;;;;;;;18.00;3.65;;;5.60;99.90;;;;;;6339395;22;20021;-93
2024/01/28 00:43:31;;;;;;;19.95;2.50;;;5.60;99.90;;;;;;6339274;22;20062;-92
2024/01/28 00:45:58;;;;;;;14.73;2.97;;;5.60;99.90;;;;;;6366176;22;20003;-91
2024/01/28 00:48:23;;;;;;;12.48;2.53;;;5.60;99.90;;;;;;6339573;22;20030;-92
2024/01/28 00:50:49;;;;;;;16.00;2.70;;;5.60;99.90;;;;;;6338326;22;20006;-91
2024/01/28 00:53:17;;;;;;;15.45;2.72;;;5.60;99.90;;;;;;6340130;22;20045;-91
2024/01/28 00:55:43;;;;;;;10.73;2.30;;;5.60;99.90;;;;;;5965934;22;8622255;-92
2024/01/28 00:58:09;;;;;;;14.55;3.17;;;5.60;99.90;;;;;;6346895;22;19998;-92
2024/01/28 01:00:35;;;;;;;11.25;3.00;;;5.60;99.90;;;;;;6371734;22;20002;-92
2024/01/28 01:03:01;;;;;;;16.50;4.07;;;5.60;99.90;;;;;;6372490;22;20033;-91
2024/01/28 01:05:29;;;;;;;12.80;2.70;;;5.60;99.90;;;;;;6372011;22;19998;-93
2024/01/28 01:07:56;;;;;;;12.82;3.17;;;5.60;99.90;;;;;;6372038;22;19998;-92
2024/01/28 01:10:25;;;;;;;16.00;3.67;;;5.50;99.90;;;;;;6372325;22;19994;-92
2024/01/28 01:12:51;;;;;;;16.05;4.65;;;5.50;99.90;;;;;;6372660;22;20002;-91
2024/01/28 01:15:17;;;;;;;14.90;2.65;;;5.50;99.90;;;;;;6399887;22;20034;-92
2024/01/28 01:17:44;;;;;;;14.10;2.78;;;5.50;99.90;;;;;;6371413;22;19994;-93
2024/01/28 01:20:10;;;;;;;16.10;2.72;;;5.40;99.90;;;;;;6371545;22;20020;-92
2024/01/28 01:22:36;;;;;;;20.08;3.55;;;5.40;99.90;;;;;;6370931;22;20006;-90
2024/01/28 01:25:04;;;;;;;13.07;3.42;;;5.40;99.90;;;;;;6371200;22;20018;-90
2024/01/28 01:27:31;;;;;;;15.05;2.83;;;5.40;99.90;;;;;;6371672;22;20044;-92
2024/01/28 01:29:57;;;;;;;15.88;2.75;;;5.50;99.90;;;;;;6371320;22;20010;-90
2024/01/28 01:32:23;;;;;;;16.17;3.63;;;5.50;99.90;;;;;;6345468;22;19995;-93
2024/01/28 01:34:49;;;;;;;12.55;3.00;;;5.50;99.90;;;;;;6371839;22;20013;-93
2024/01/28 01:37:17;;;;;;;13.65;2.70;;;5.50;99.90;;;;;;6367977;22;20006;-96
2024/01/28 01:39:45;;;;;;;20.55;2.70;;;5.50;99.90;;;;;;6365724;22;20062;-96
2024/01/28 01:42:13;;;;;;;15.30;2.88;;;5.50;99.90;;;;;;6365470;22;19998;-96
2024/01/28 01:44:43;;;;;;;15.68;3.22;;;5.50;99.90;;;;;;6340949;22;20018;-94
2024/01/28 01:47:09;;;;;;;11.68;3.13;;;5.50;99.90;;;;;;6371555;22;19991;-95
2024/01/28 01:49:35;;;;;;;12.18;2.83;;;5.50;99.90;;;;;;6398706;22;20032;-93
2024/01/28 01:52:02;;;;;;;18.90;3.38;;;5.50;99.90;;;;;;6398975;22;20030;-93
2024/01/28 01:54:28;;;;;;;13.23;3.53;;;5.50;99.90;;;;;;6371685;22;20008;-94
2024/01/28 01:56:53;;;;;;;14.40;3.17;;;5.50;99.90;;;;;;6372485;22;19994;-95
2024/01/28 01:59:21;;;;;;;11.68;2.90;;;5.50;99.90;;;;;;6399818;22;19995;-95
2024/01/28 02:01:47;;;;;;;12.93;3.10;;;5.50;99.90;;;;;;6372346;22;20005;-96
2024/01/28 02:04:14;;;;;;;13.18;3.08;;;5.50;99.90;;;;;;6346270;22;20025;-95
2024/01/28 02:06:40;;;;;;;26.42;5.20;;;5.50;99.90;;;;;;6372247;22;20014;-92
2024/01/28 02:09:09;;;;;;;14.25;3.00;;;5.50;99.90;;;;;;6371860;22;20062;-93
2024/01/28 02:11:36;;;;;;;11.20;3.17;;;5.50;99.90;;;;;;6372474;22;20002;-95
2024/01/28 02:14:02;;;;;;;20.15;3.50;;;5.50;99.90;;;;;;6372507;22;19990;-94
2024/01/28 02:16:29;;;;;;;15.93;4.53;;;5.40;99.90;;;;;;6371448;22;19994;-94
2024/01/28 02:18:55;;;;;;;15.65;3.35;;;5.50;99.90;;;;;;6368543;22;20026;-96
2024/01/28 02:21:23;;;;;;;16.55;4.55;;;5.50;99.90;;;;;;6344330;22;20022;-92
2024/01/28 02:23:49;;;;;;;10.63;2.72;;;5.50;99.90;;;;;;6372001;22;20006;-91
2024/01/28 02:26:15;;;;;;;15.65;3.20;;;5.50;99.90;;;;;;6371922;22;20018;-93
2024/01/28 02:28:40;;;;;;;18.70;4.28;;;5.50;99.90;;;;;;6369933;22;19990;-92
2024/01/28 02:31:06;;;;;;;15.73;3.20;;;5.40;99.90;;;;;;6371598;22;19997;-93
2024/01/28 02:33:32;;;;;;;12.73;3.28;;;5.40;99.90;;;;;;6371862;22;19994;-92
2024/01/28 02:35:58;;;;;;;19.40;3.95;;;5.40;99.90;;;;;;6371335;22;20006;-93
2024/01/28 02:38:24;;;;;;;21.05;3.65;;;5.40;99.90;;;;;;6371391;22;20005;-93
2024/01/28 02:40:52;;;;;;;11.52;3.58;;;5.40;99.90;;;;;;6370421;22;20010;-93
2024/01/28 02:43:19;;;;;;;18.90;4.43;;;5.40;99.90;;;;;;6371374;22;20012;-93
2024/01/28 02:45:45;;;;;;;16.40;4.43;;;5.40;99.90;;;;;;6371378;22;20045;-95
2024/01/28 02:48:12;;;;;;;16.40;3.17;;;5.50;99.90;;;;;;6371742;22;19998;-91
2024/01/28 02:50:37;;;;;;;18.95;4.63;;;5.40;99.90;;;;;;6371753;22;19990;-92
2024/01/28 02:53:04;;;;;;;13.18;3.40;;;5.40;99.90;;;;;;6371573;22;20001;-93
2024/01/28 02:55:29;;;;;;;13.55;3.70;;;5.40;99.90;;;;;;6371469;22;20028;-90
2024/01/28 02:57:55;;;;;;;16.88;5.53;;;5.40;99.90;;;;;;6371496;22;20034;-91
2024/01/28 03:00:21;;;;;;;14.38;4.20;;;5.50;99.90;;;;;;6371805;22;20020;-92
2024/01/28 03:02:46;;;;;;;16.65;3.80;;;5.50;99.90;;;;;;6371491;22;19991;-91
2024/01/28 03:05:12;;;;;;;16.58;3.22;;;5.50;99.90;;;;;;6371401;22;20024;-93
2024/01/28 03:07:38;;;;;;;10.73;3.25;;;5.50;99.90;;;;;;6371515;22;20014;-93
2024/01/28 03:10:05;;;;;;;24.33;4.57;;;5.50;99.90;;;;;;6371287;22;19994;-92
2024/01/28 03:12:30;;;;;;;26.40;5.18;;;5.50;99.90;;;;;;6371232;22;20006;-92
2024/01/28 03:14:57;;;;;;;16.00;4.60;;;5.50;99.90;;;;;;6398173;22;20024;-93
2024/01/28 03:17:22;;;;;;;18.27;4.43;;;5.50;99.90;;;;;;6369884;22;20006;-94
2024/01/28 03:19:48;;;;;;;17.13;4.00;;;5.50;99.90;;;;;;6367764;22;20057;-94
2024/01/28 03:22:14;;;;;;;35.15;7.18;;;5.40;99.90;;;;;;6368980;22;20006;-95
2024/01/28 03:24:40;;;;;;;18.15;4.40;;;5.40;99.90;;;;;;6370852;22;20026;-93
2024/01/28 03:27:06;;;;;;;22.17;4.75;;;5.40;99.90;;;;;;6370513;22;20014;-92
2024/01/28 03:29:32;;;;;;;17.52;4.40;;;5.40;99.90;;;;;;6371317;22;20006;-94
2024/01/28 03:31:59;;;;;;;14.77;4.15;;;5.40;99.90;;;;;;6370942;22;19994;-93
2024/01/28 03:34:25;;;;;;;18.13;4.50;;;5.50;99.90;;;;;;6370713;22;19998;-96
2024/01/28 03:36:51;;;;;;;9.80;3.42;;;5.50;99.90;;;;;;6371323;22;20037;-93
2024/01/28 03:39:16;;;;;;;16.92;4.03;;;5.50;99.90;;;;;;6371366;22;20005;-92
2024/01/28 03:41:42;;;;;;;16.33;4.20;;;5.50;99.90;;;;;;6371056;22;20014;-91
2024/01/28 03:44:08;;;;;;;13.38;4.03;;;5.50;99.90;;;;;;6371020;22;20030;-95
2024/01/28 03:46:35;;;;;;;13.30;4.25;;;5.50;99.90;;;;;;6371428;22;20012;-93
2024/01/28 03:49:01;;;;;;;18.08;4.75;;;5.60;99.90;;;;;;6371176;22;19995;-92
2024/01/28 03:51:27;;;;;;;10.27;3.75;;;5.60;99.90;;;;;;6371151;22;19987;-93
2024/01/28 03:53:52;;;;;;;11.63;4.00;;;5.60;99.90;;;;;;6372321;22;20033;-91
2024/01/28 03:56:19;;;;;;;9.93;3.13;;;5.60;99.90;;;;;;6373852;22;20002;-93
2024/01/28 03:58:46;;;;;;;13.02;3.92;;;5.60;99.90;;;;;;6373187;22;20025;-91
2024/01/28 04:01:18;;;;;;;13.35;3.67;;;5.70;99.90;;;;;;6373989;22;20046;-93
2024/01/28 04:03:43;;;;;;;15.43;4.10;;;5.70;99.90;;;;;;6373950;22;20022;-91
2024/01/28 04:06:09;;;;;;;11.30;3.40;;;5.70;99.90;;;;;;6373755;22;20009;-92
2024/01/28 04:08:35;;;;;;;11.32;3.65;;;5.70;99.90;;;;;;6373960;22;20009;-93
2024/01/28 04:11:05;;;;;;;14.73;4.10;;;5.80;99.90;;;;;;6373890;22;20062;-92
2024/01/28 04:13:33;;;;;;;13.68;3.92;;;5.80;99.90;;;;;;6373595;22;20046;-92
2024/01/28 04:15:59;;;;;;;10.68;3.13;;;5.80;99.90;;;;;;6372997;22;19994;-92
2024/01/28 04:18:24;;;;;;;16.77;3.20;;;5.90;99.90;;;;;;6372712;22;20093;-93
2024/01/28 04:20:52;;;;;;;10.32;2.83;;;5.90;99.90;;;;;;6344574;22;20033;-95
2024/01/28 04:23:18;;;;;;;10.77;3.15;;;5.90;99.90;;;;;;6365266;22;20082;-96
2024/01/28 04:25:45;;;;;;;8.73;2.75;;;5.90;99.90;;;;;;6363122;22;20006;-94
2024/01/28 04:28:11;;;;;;;11.20;2.90;;;6.00;99.90;;;;;;6363941;22;19998;-96
2024/01/28 04:30:37;;;;;;;14.45;3.50;;;6.00;99.90;;;;;;6362553;22;20520;-95
2024/01/28 04:33:04;;;;;;;10.90;3.15;;;6.00;99.90;;;;;;6364583;22;20038;-95
2024/01/28 04:35:40;;;;;;;16.20;3.00;;;6.10;99.90;;;;;;6370286;22;19991;-92
2024/01/28 04:38:12;;;;;;;7.18;2.85;;;6.10;99.90;;;;;;6399671;22;19995;-93
2024/01/28 04:40:40;;;;;;;12.32;2.88;;;6.10;99.90;;;;;;6372699;22;19987;-94
2024/01/28 04:43:08;;;;;;;12.68;3.33;;;6.10;99.90;;;;;;6371995;22;19998;-93
2024/01/28 04:45:34;;;;;;;7.18;3.00;;;6.10;99.90;;;;;;6372438;22;20008;-91
2024/01/28 04:47:59;;;;;;;13.60;3.50;;;6.10;99.90;;;;;;6372365;22;19995;-91
2024/01/28 04:50:25;;;;;;;13.55;4.72;;;6.10;99.90;;;;;;6372370;22;20013;-91
2024/01/28 04:52:51;;;;;;;13.13;3.95;;;6.10;99.90;;;;;;6372541;22;19991;-91
2024/01/28 04:55:19;;;;;;;12.18;3.13;;;6.10;99.90;;;;;;6367203;22;20025;-92
2024/01/28 04:57:45;;;;;;;13.10;4.32;;;6.10;99.90;;;;;;6365862;22;20197;-92
2024/01/28 05:00:15;;;;;;;15.63;3.85;;;6.10;99.90;;;;;;6363993;22;19991;-91
2024/01/28 05:03:02;;;;;;;14.68;3.58;;;6.10;99.90;;;;;;6367400;22;20003;-92
2024/01/28 05:05:30;;;;;;;14.15;4.13;;;6.10;99.90;;;;;;6341188;22;20010;-91
2024/01/28 05:07:56;;;;;;;8.60;3.08;;;6.10;99.90;;;;;;6341187;22;20001;-92
2024/01/28 05:10:23;;;;;;;23.98;4.45;;;6.10;99.90;;;;;;6368218;22;20022;-91
2024/01/28 05:12:49;;;;;;;9.15;3.60;;;6.10;99.90;;;;;;6366883;22;19987;-91
2024/01/28 05:15:16;;;;;;;9.32;3.95;;;6.00;99.90;;;;;;6367196;22;20284;-90
2024/01/28 05:17:44;;;;;;;11.82;4.03;;;6.00;99.90;;;;;;6366817;22;20037;-91
2024/01/28 05:20:14;;;;;;;9.10;3.63;;;6.10;99.90;;;;;;6366539;22;20010;-92
2024/01/28 05:22:41;;;;;;;;;;;6.10;99.90;;;;;;6368433;22;20054;-89
2024/01/28 05:25:09;;;;;;;12.05;3.95;;;6.10;99.90;;;;;;6367095;22;19894;-91
2024/01/28 05:27:38;;;;;;;9.85;3.58;;;6.00;99.90;;;;;;6367219;22;20005;-90
2024/01/28 05:30:06;;;;;;;9.73;3.38;;;6.10;99.90;;;;;;6366320;22;20017;-94
2024/01/28 05:32:31;;;;;;;16.13;4.15;;;6.10;99.90;;;;;;6365144;22;19999;-95
2024/01/28 05:34:57;;;;;;;12.80;3.70;;;6.00;99.90;;;;;;6366328;22;20005;-91
2024/01/28 05:37:23;;;;;;;15.25;4.15;;;6.00;99.90;;;;;;6366755;22;20457;-93
2024/01/28 05:39:50;;;;;;;15.93;4.30;;;6.00;99.90;;;;;;6367891;22;20003;-90
2024/01/28 05:42:16;;;;;;;12.73;4.40;;;6.00;99.90;;;;;;6340901;22;20058;-91
2024/01/28 05:44:43;;;;;;;11.27;3.70;;;6.00;99.90;;;;;;6366743;22;20007;-92
2024/01/28 05:47:09;;;;;;;13.43;4.28;;;6.00;99.90;;;;;;6341055;22;20002;-91
2024/01/28 05:49:35;;;;;;;15.77;4.20;;;6.00;99.90;;;;;;6367312;22;20014;-90
2024/01/28 05:52:00;;;;;;;13.45;4.25;;;5.90;99.90;;;;;;6367497;22;19998;-89
2024/01/28 05:54:30;;;;;;;11.93;4.22;;;5.90;99.90;;;;;;6367182;22;20092;-92
2024/01/28 05:56:59;;;;;;;13.07;4.63;;;5.90;99.90;;;;;;6367302;22;19995;-90
2024/01/28 05:59:24;;;;;;;17.65;5.07;;;5.90;99.90;;;;;;6366900;22;20014;-92
2024/01/28 06:01:50;;;;;;;20.95;5.93;;;5.90;99.90;;;;;;6367048;22;20007;-92
2024/01/28 06:04:16;;;;;;;18.30;4.75;;;5.90;99.90;;;;;;6366348;22;20058;-90
2024/01/28 06:06:42;;;;;;;15.43;5.07;;;5.90;99.90;;;;;;6366893;22;20010;-89
2024/01/28 06:09:09;;;;;;;14.98;5.28;;;5.90;99.90;;;;;;6366135;22;20012;-90
2024/01/28 06:11:36;;;;;;;16.90;4.40;;;5.90;99.90;;;;;;6367655;22;19999;-91
2024/01/28 06:14:02;;;;;;;21.83;4.30;;;5.90;99.90;;;;;;6366359;22;20014;-89
2024/01/28 06:16:28;;;;;;;16.10;4.90;;;5.80;99.90;;;;;;6366239;22;20010;-90
2024/01/28 06:18:53;;;;;;;14.55;4.80;;;5.80;99.90;;;;;;6340549;22;20014;-90
2024/01/28 06:21:19;;;;;;;11.88;5.30;;;5.80;99.90;;;;;;6340429;22;20006;-91
2024/01/28 06:23:45;;;;;;;15.80;5.32;;;5.70;99.90;;;;;;6366461;22;20007;-90
2024/01/28 06:26:11;;;;;;;13.82;4.63;;;5.80;99.90;;;;;;6340496;22;19987;-90
2024/01/28 06:28:36;;;;;;;21.65;5.93;;;5.70;99.90;;;;;;6340390;22;19991;-90
2024/01/28 06:31:02;;;;;;;21.58;5.07;;;5.70;99.90;;;;;;6366523;22;19991;-91
2024/01/28 06:33:28;;;;;;;15.07;4.72;;;5.70;99.90;;;;;;6366327;22;20003;-91
2024/01/28 06:35:54;;;;;;;22.65;6.93;;;5.70;99.90;;;;;;6366587;22;19995;-91
2024/01/28 06:38:24;;;;;;;16.77;5.70;;;5.60;99.90;;;;;;6366533;22;19999;-91
2024/01/28 06:40:50;;;;;;;18.73;5.50;;;5.60;99.90;;;;;;6367241;22;20006;-90
2024/01/28 06:43:15;;;;;;;23.20;5.65;;;5.60;99.90;;;;;;6340194;22;19995;-90
2024/01/28 06:45:42;;;;;;;13.45;5.65;;;5.60;99.90;;;;;;6366337;22;20062;-90
2024/01/28 06:48:08;;;;;;;17.23;5.65;;;5.50;99.90;;;;;;6366370;22;20014;-91
2024/01/28 06:50:33;;;;;;;20.35;4.25;;;5.50;99.90;;;;;;6366528;22;20021;-90
2024/01/28 06:53:01;;;;;;;17.05;4.57;;;5.50;99.90;;;;;;6340526;22;20011;-92
2024/01/28 06:55:27;;;;;;;10.68;4.55;;;5.60;99.90;;;;;;6366110;22;20011;-91
2024/01/28 06:57:52;;;;;;;19.20;4.95;;;5.50;99.90;;;;;;6366181;22;20002;-90
2024/01/28 07:00:19;;;;;;;13.88;4.80;;;5.50;99.90;;;;;;6339683;22;20057;-91
2024/01/28 07:02:49;;;;;;;13.88;4.72;;;5.60;99.90;;;;;;6365794;22;20022;-91
2024/01/28 07:05:15;;;;;;;13.80;4.97;;;5.60;99.90;;;;;;6365389;22;20179;-94
2024/01/28 07:07:41;;;;;;;16.00;5.55;;;5.60;99.90;;;;;;6364734;22;19991;-92
2024/01/28 07:10:08;;;;;;;10.65;4.53;;;5.60;99.90;;;;;;6361504;22;20030;-95
2024/01/28 07:12:34;;;;;;;6.72;4.28;;;5.60;99.90;;;;;;6355124;22;20003;-95
2024/01/28 07:15:03;;;;;;;14.25;4.60;;;5.60;99.90;;;;;;6333680;22;20075;-91
2024/01/28 07:17:29;;;;;;;16.55;5.15;;;5.60;99.90;;;;;;6364614;22;19991;-93
2024/01/28 07:19:54;;;;;;;16.25;5.03;;;5.70;99.90;;;;;;6313740;22;20002;-89
2024/01/28 07:22:20;;;;;;;18.38;5.80;;;5.70;99.90;;;;;;6339662;22;20039;-91
2024/01/28 07:24:47;;;;;;;20.30;3.95;;;5.80;99.90;;;;;;6339579;22;20007;-92
2024/01/28 07:27:13;;;;;;;11.88;3.70;;;5.80;99.90;;;;;;6337647;22;20165;-95
2024/01/28 07:29:40;;;;;;;13.27;3.90;;;5.80;99.90;;;;;;6337658;22;19994;-93
2024/01/28 07:32:07;;;;;;;18.33;4.28;;;5.90;99.90;;;;;;6363977;22;20003;-94
2024/01/28 07:34:33;;;;;;;11.70;3.85;;;5.90;99.90;;;;;;6339068;22;20001;-95
2024/01/28 07:36:58;;;;;;;15.68;4.53;;;5.90;99.90;;;;;;6335007;22;19987;-91
2024/01/28 07:39:26;;;;;;;12.20;4.03;;;5.90;99.90;;;;;;6337063;22;20011;-94
2024/01/28 07:41:54;;;;;;;12.75;4.35;;;5.90;99.90;;;;;;6312203;22;20007;-94
2024/01/28 07:44:20;;;;;;;10.38;3.75;;;5.90;99.90;;;;;;6336445;22;20010;-94
2024/01/28 07:46:47;;;;;;;15.23;5.70;;;5.90;99.90;;;;;;6335569;22;20011;-95
2024/01/28 07:49:12;;;;;;;11.10;3.42;;;5.90;99.90;;;;;;6339813;22;20059;-95
2024/01/28 07:51:38;;;;;;;15.07;4.28;;;5.90;99.90;;;;;;6357629;22;20003;-96
2024/01/28 07:54:04;;;;;;;11.30;4.95;;;5.90;99.90;;;;;;6347292;22;20055;-95
2024/01/28 07:56:30;;;;;;;11.65;3.85;;;5.90;99.90;;;;;;6319016;22;20010;-95
2024/01/28 07:58:56;;;;;;;9.65;3.17;;;5.90;99.90;;;;;;6345197;22;20007;-94
2024/01/28 08:01:22;;;;;;;12.07;4.53;;;5.90;99.90;;;;;;6346656;22;20085;-96
2024/01/28 08:03:49;;;;;;;14.18;4.30;;;5.90;99.90;;;;;;6342008;22;20014;-94
2024/01/28 08:06:15;;;;;;;10.35;4.38;;;5.80;99.90;;;;;;6341440;22;20210;-96
2024/01/28 08:08:41;;;;;;;8.80;3.53;;;5.80;99.90;;;;;;6349116;22;20009;-96
2024/01/28 08:11:08;;;;;;;11.15;4.75;;;5.90;99.90;;;;;;6319482;22;20102;-95
2024/01/28 08:13:34;;;;;;;13.02;4.15;;;5.80;99.90;;;;;;6338487;22;20010;-94
2024/01/28 08:16:03;;;;;;;12.52;3.83;;;5.80;99.90;;;;;;6341539;22;20007;-94
2024/01/28 08:18:29;;;;;;;13.50;5.15;;;5.80;99.90;;;;;;6341121;22;20056;-95
2024/01/28 08:20:57;;;;;;;19.63;3.72;;;5.80;99.90;;;;;;6341533;22;20003;-95
2024/01/28 08:23:22;;;;;;;12.35;3.70;;;5.80;99.90;;;;;;6342903;22;20003;-95
2024/01/28 08:25:48;;;;;;;13.50;4.03;;;5.80;99.90;;;;;;6341236;22;20429;-95
2024/01/28 08:28:14;;;;;;;11.50;4.80;;;5.80;99.90;;;;;;6315126;22;20003;-94
2024/01/28 08:30:40;;;;;;;8.23;4.13;;;5.80;99.90;;;;;;6341032;22;20003;-95
2024/01/28 08:33:06;;;;;;;9.98;3.92;;;5.80;99.90;;;;;;6340678;22;20003;-93
2024/01/28 08:35:31;;;;;;;16.00;3.53;;;5.80;99.90;;;;;;6338541;22;20415;-94
2024/01/28 08:37:57;;;;;;;12.13;3.95;;;5.80;99.90;;;;;;6337981;22;20093;-95
2024/01/28 08:40:24;;;;;;;9.75;3.85;;;5.80;99.90;;;;;;6348255;22;19999;-94
2024/01/28 08:42:54;;;;;;;13.82;3.90;;;5.80;99.90;;;;;;6318477;22;20022;-94
2024/01/28 08:45:20;;;;;;;11.43;3.70;;;5.80;99.90;;;;;;6329750;22;20105;-95
2024/01/28 08:47:46;;;;;;;15.25;5.05;;;5.80;99.90;;;;;;6321549;22;20003;-95
2024/01/28 08:50:13;;;;;;;13.00;3.80;;;5.80;99.90;;;;;;6345504;22;20027;-94
2024/01/28 08:52:41;;;;;;;8.02;3.92;;;5.80;99.90;;;;;;6317076;22;20007;-95
2024/01/28 08:55:07;;;;;;;13.88;4.65;;;5.80;99.90;;;;;;6331676;22;20014;-93
2024/01/28 08:57:33;;;;;;;10.40;3.50;;;5.90;99.90;;;;;;6352360;22;19998;-93
2024/01/28 08:59:58;;;;;;;11.82;3.28;;;5.90;99.90;;;;;;6367074;22;20003;-91
2024/01/28 09:02:24;;;;;;;16.27;3.67;;;5.90;99.90;;;;;;6371772;22;19982;-91
2024/01/28 09:04:50;;;;;;;10.35;3.60;;;5.90;99.90;;;;;;6368913;22;20067;-94
2024/01/28 09:07:15;;;;;;;8.50;3.67;;;5.90;99.90;;;;;;6349867;22;20449;-94
2024/01/28 09:09:41;;;;;;;9.85;3.38;;;5.90;99.90;;;;;;6352682;22;20013;-96
2024/01/28 09:12:07;;;;;;;8.95;3.88;;;5.90;99.90;;;;;;6359467;22;20492;-95
2024/01/28 09:14:34;;;;;;;6.88;2.95;;;5.90;99.90;;;;;;6358355;22;20067;-95
2024/01/28 09:17:00;;;;;;;6.63;2.88;;;6.00;99.90;;;;;;6357078;22;19998;-95
2024/01/28 09:19:25;;;;;;;13.80;3.38;;;6.00;99.90;;;;;;6358269;22;20066;-95
2024/01/28 09:21:51;;;;;;;8.38;3.85;;;6.00;99.90;;;;;;6358515;22;20290;-94
2024/01/28 09:24:17;;;;;;;7.47;2.92;;;6.00;99.90;;;;;;6357228;22;20007;-94
2024/01/28 09:26:43;;;;;;;14.10;3.58;;;6.00;99.90;;;;;;6356368;22;20009;-96
2024/01/28 09:29:09;;;;;;;15.50;5.97;;;6.00;99.90;;;;;;6356232;22;19998;-96
2024/01/28 09:31:35;;;;;;;11.52;3.85;;;6.00;99.90;;;;;;6355110;22;20014;-96
2024/01/28 09:34:00;;;;;;;12.10;3.47;;;6.00;99.90;;;;;;6360714;22;20010;-96
2024/01/28 09:36:26;;;;;;;11.55;3.40;;;6.00;99.90;;;;;;6360876;22;20002;-95
2024/01/28 09:38:52;;;;;;;7.95;3.42;;;6.00;99.90;;;;;;6361487;22;20031;-96
2024/01/28 09:41:28;;;;;;;10.82;3.47;;;6.10;99.90;;;;;;6358468;22;20032;-95
2024/01/28 09:43:54;;;;;;;13.10;3.65;;;6.00;99.90;;;;;;6358659;22;20002;-95
2024/01/28 09:46:19;;;;;;;9.55;3.72;;;6.10;99.90;;;;;;6329536;22;21218;-95
2024/01/28 09:48:46;;;;;;;10.95;3.40;;;6.10;99.90;;;;;;6348034;22;20078;-94
2024/01/28 09:51:12;;;;;;;12.70;3.55;;;6.20;99.90;;;;;;6347212;22;20006;-95
2024/01/28 09:53:40;;;;;;;8.35;2.75;;;6.20;99.90;;;;;;6351280;22;20077;-96
2024/01/28 09:56:10;;;;;;;11.75;3.47;;;6.20;99.90;;;;;;6382556;22;20014;-94
2024/01/28 09:58:37;;;;;;;10.40;2.95;;;6.20;99.90;;;;;;6380458;22;19998;-94
2024/01/28 10:01:04;;;;;;;7.18;3.10;;;6.20;99.90;;;;;;6349276;22;20093;-96
2024/01/28 10:03:31;;;;;;;7.13;3.17;;;6.20;99.90;;;;;;6349667;22;20003;-95
2024/01/28 10:05:58;;;;;;;13.82;3.03;;;6.20;99.90;;;;;;6364672;22;20007;-93
2024/01/28 10:08:27;;;;;;;14.10;3.50;;;6.30;99.90;;;;;;6371563;22;20010;-95
2024/01/28 10:10:56;;;;;;;6.07;2.67;;;6.30;99.90;;;;;;6371110;22;20002;-94
2024/01/28 10:13:22;;;;;;;8.80;3.42;;;6.30;99.90;;;;;;6371518;22;19991;-95
2024/01/28 10:15:55;;;;;;;10.45;3.33;;;6.30;99.90;;;;;;6355839;22;20010;-94
2024/01/28 10:18:25;;;;;;;16.92;3.65;;;6.30;99.90;;;;;;6347966;22;20003;-95
2024/01/28 10:20:51;;;;;;;10.17;3.80;;;6.30;99.90;;;;;;6348715;22;20024;-96
2024/01/28 10:23:17;;;;;;;9.98;3.20;;;6.30;99.90;;;;;;6347755;22;20089;-96
2024/01/28 10:25:44;;;;;;;11.15;3.30;;;6.40;99.90;;;;;;6348121;22;20164;-95
2024/01/28 10:28:10;;;;;;;7.53;2.88;;;6.40;99.90;;;;;;6347177;22;20059;-93
2024/01/28 10:30:35;;;;;;;12.73;3.50;;;6.50;99.90;;;;;;6347386;22;20362;-94
2024/01/28 10:33:01;;;;;;;15.57;3.80;;;6.50;99.90;;;;;;6347627;22;20019;-95
2024/01/28 10:35:28;;;;;;;7.70;3.30;;;6.50;99.90;;;;;;6347863;22;20007;-95
2024/01/28 10:37:55;;;;;;;10.73;3.40;;;6.60;99.90;;;;;;6347688;22;20009;-95
2024/01/28 10:40:25;;;;;;;7.10;3.05;;;6.60;99.90;;;;;;6347807;22;20003;-95
2024/01/28 10:42:55;;;;;;;14.20;3.67;;;6.60;99.90;;;;;;6351883;22;20032;-96
2024/01/28 10:45:23;;;;;;;12.48;4.72;;;6.70;99.90;;;;;;6348275;22;20014;-95
2024/01/28 10:47:53;;;;;;;12.73;3.63;;;6.70;99.90;;;;;;6347488;22;20038;-96
2024/01/28 10:50:21;;;;;;;12.23;3.60;;;6.80;99.90;;;;;;6347960;22;20025;-95
2024/01/28 10:52:48;;;;;;;8.00;3.35;;;6.80;99.90;;;;;;6348978;22;19994;-95
2024/01/28 10:55:16;;;;;;;11.18;3.40;;;6.90;99.90;;;;;;6351729;22;20002;-93
2024/01/28 10:57:42;;;;;;;9.40;3.03;;;6.90;99.90;;;;;;6350896;22;20009;-94
2024/01/28 11:00:11;;;;;;;11.30;3.05;;;7.00;99.90;;;;;;6353254;22;20067;-96
2024/01/28 11:02:41;;;;;;;12.95;3.85;;;7.00;99.90;;;;;;6356317;22;19998;-95
2024/01/28 11:05:07;;;;;;;9.98;3.13;;;7.10;99.90;;;;;;6355159;22;20010;-95
2024/01/28 11:07:34;;;;;;;9.35;2.80;;;7.20;99.90;;;;;;6380250;22;19998;-95
2024/01/28 11:10:01;;;;;;;16.17;3.72;;;7.30;99.90;;;;;;6349699;22;20030;-95
2024/01/28 11:12:27;;;;;;;15.35;3.28;;;7.30;99.90;;;;;;6351228;22;20023;-93
2024/01/28 11:14:57;;;;;;;7.88;2.85;;;7.40;99.90;;;;;;6361530;22;20425;-95
2024/01/28 11:17:34;;;;;;;7.85;3.05;;;7.40;99.90;;;;;;6364970;22;20002;-95
2024/01/28 11:20:09;;;;;;;13.30;2.97;;;7.40;99.90;;;;;;6365049;22;20027;-96
2024/01/28 11:22:53;;;;;;;10.75;3.50;;;7.50;99.90;;;;;;6362592;22;20035;-95
2024/01/28 11:25:26;;;;;;;12.65;3.47;;;7.60;99.90;;;;;;6357100;22;20006;-95
2024/01/28 11:28:01;;;;;;;10.93;3.35;;;7.60;99.90;;;;;;6356362;22;19999;-94
2024/01/28 11:30:27;;;;;;;12.77;4.82;;;7.70;99.90;;;;;;6351830;22;20013;-95
2024/01/28 11:33:17;;;;;;;13.23;3.75;;;7.70;99.90;;;;;;6354682;22;19998;-95
2024/01/28 11:35:44;;;;;;;8.30;3.08;;;7.70;99.90;;;;;;6351155;22;20003;-94
2024/01/28 11:38:11;;;;;;;10.13;3.13;;;7.70;99.90;;;;;;6348810;22;20006;-95
2024/01/28 11:40:38;;;;;;;8.98;4.25;;;7.80;99.90;;;;;;6349568;22;20022;-96
2024/01/28 11:43:06;;;;;;;9.18;3.00;;;7.80;99.90;;;;;;6347905;22;20014;-95
2024/01/28 11:45:32;;;;;;;9.70;3.95;;;7.80;99.90;;;;;;6347056;22;20038;-94
2024/01/28 11:48:04;;;;;;;8.43;2.67;;;7.80;99.90;;;;;;6350606;22;20021;-95
2024/01/28 11:50:30;;;;;;;13.38;3.42;;;7.80;99.90;;;;;;6348179;22;20006;-96
2024/01/28 11:52:55;;;;;;;9.35;3.47;;;7.80;99.90;;;;;;6349089;22;20024;-96
2024/01/28 11:55:21;;;;;;;14.70;3.80;;;7.90;99.90;;;;;;6348791;22;20107;-95
2024/01/28 11:57:48;;;;;;;10.15;3.13;;;7.90;99.90;;;;;;6348043;22;20003;-95
2024/01/28 12:00:15;;;;;;;8.82;2.90;;;8.00;99.90;;;;;;6349010;22;20002;-95
2024/01/28 12:02:42;;;;;;;7.57;2.70;;;8.00;99.90;;;;;;6346790;22;19998;-95
2024/01/28 12:05:08;;;;;;;15.07;3.53;;;8.10;99.90;;;;;;6349195;22;20010;-95
2024/01/28 12:07:36;;;;;;;13.95;4.03;;;8.00;99.90;;;;;;6356486;22;20006;-96
2024/01/28 12:10:05;;;;;;;12.23;3.15;;;8.10;99.90;;;;;;6353434;22;20066;-96
2024/01/28 12:12:34;;;;;;;10.75;3.92;;;8.10;99.90;;;;;;6353043;22;20007;-96
2024/01/28 12:15:04;;;;;;;10.15;3.90;;;8.00;99.90;;;;;;6353374;22;20002;-96
2024/01/28 12:17:36;;;;;;;13.57;3.40;;;8.00;99.90;;;;;;6354694;22;20002;-96
2024/01/28 12:20:03;;;;;;;15.93;4.78;;;8.00;99.90;;;;;;6354622;22;20005;-95
2024/01/28 12:22:39;;;;;;;11.95;4.18;;;8.00;99.90;;;;;;6353471;22;20063;-94
2024/01/28 12:25:09;;;;;;;13.90;4.82;;;8.10;99.90;;;;;;6353084;22;20014;-96
2024/01/28 12:27:36;;;;;;;11.25;3.63;;;8.00;99.90;;;;;;6353456;22;20013;-95
2024/01/28 12:30:02;;;;;;;9.20;3.88;;;8.00;99.90;;;;;;6348753;22;20033;-95
2024/01/28 12:32:28;;;;;;;7.72;3.30;;;8.00;99.90;;;;;;6349499;22;20002;-95
2024/01/28 12:34:54;;;;;;;7.82;3.22;;;8.10;99.90;;;;;;6350753;22;20017;-94
2024/01/28 12:37:24;;;;;;;13.20;3.45;;;8.10;99.90;;;;;;6349688;22;19995;-94
2024/01/28 12:39:49;;;;;;;9.70;2.95;;;8.10;99.90;;;;;;6350584;22;20002;-96
2024/01/28 12:42:18;;;;;;;7.78;3.17;;;8.10;99.90;;;;;;6352062;22;20310;-95
2024/01/28 12:44:44;;;;;;;11.48;4.53;;;8.10;99.90;;;;;;6352195;22;20045;-93
2024/01/28 12:47:10;;;;;;;8.57;3.40;;;8.10;99.90;;;;;;6329156;22;20433;-95